createdAt,value
2023-05-25T00:03:05.014Z,12.00
2023-05-25T00:08:09.054Z,10.90
2023-05-25T00:13:12.809Z,13.00
2023-05-25T00:18:16.523Z,12.90
2023-05-25T00:23:21.763Z,14.00
2023-05-25T00:28:25.616Z,14.90
2023-05-25T00:33:29.655Z,14.00
2023-05-25T00:38:33.389Z,15.00
2023-05-25T00:43:37.240Z,14.40
2023-05-25T00:48:41.224Z,14.40
2023-05-25T00:53:44.988Z,14.80
2023-05-25T00:58:51.194Z,17.20
2023-05-25T01:03:56.846Z,15.10
2023-05-25T01:09:04.696Z,14.30
2023-05-25T01:14:09.595Z,14.00
2023-05-25T01:19:13.638Z,14.50
2023-05-25T01:24:32.781Z,14.70
2023-05-25T01:29:38.002Z,14.10
2023-05-25T01:34:44.264Z,13.50
2023-05-25T01:39:48.073Z,14.40
2023-05-25T01:44:51.930Z,12.90
2023-05-25T01:50:14.458Z,15.00
2023-05-25T01:55:19.851Z,14.60
2023-05-25T02:00:25.372Z,15.30
2023-05-25T02:05:29.358Z,14.80
2023-05-25T02:10:33.609Z,17.40
2023-05-25T02:15:38.095Z,16.00
2023-05-25T02:20:41.967Z,14.30
2023-05-25T02:25:46.851Z,14.50
2023-05-25T02:30:50.796Z,15.50
2023-05-25T02:35:55.766Z,13.60
2023-05-25T02:40:59.656Z,14.10
2023-05-25T02:46:03.612Z,13.00
2023-05-25T02:51:07.717Z,12.90
2023-05-25T02:56:11.835Z,13.50
2023-05-25T03:01:19.416Z,13.20
2023-05-25T03:06:29.004Z,15.90
2023-05-25T03:11:35.247Z,14.20
2023-05-25T03:16:40.450Z,13.20
2023-05-25T03:21:44.409Z,13.30
2023-05-25T03:26:51.703Z,13.20
2023-05-25T03:31:55.638Z,13.00
2023-05-25T03:37:04.078Z,14.70
2023-05-25T03:42:08.576Z,13.80
2023-05-25T03:47:13.898Z,13.00
2023-05-25T03:52:17.695Z,12.00
2023-05-25T03:57:21.711Z,11.20
2023-05-25T04:02:25.565Z,12.20
2023-05-25T04:07:31.463Z,11.60
2023-05-25T04:12:36.676Z,11.20
2023-05-25T04:17:41.520Z,12.20
2023-05-25T04:22:45.415Z,12.90
2023-05-25T04:27:49.612Z,14.20
2023-05-25T04:33:04.372Z,13.30
2023-05-25T04:38:27.454Z,12.50
2023-05-25T04:43:31.439Z,14.30
2023-05-25T04:48:39.516Z,11.40
2023-05-25T04:53:43.544Z,14.50
2023-05-25T04:58:47.501Z,13.30
2023-05-25T05:03:51.888Z,12.20
2023-05-25T05:08:58.099Z,11.60
2023-05-25T05:14:01.986Z,12.90
2023-05-25T05:19:06.564Z,12.10
2023-05-25T05:24:11.252Z,12.40
2023-05-25T05:29:15.047Z,12.50
2023-05-25T05:34:21.716Z,11.80
2023-05-25T05:39:25.661Z,11.20
2023-05-25T05:44:32.382Z,11.80
2023-05-25T05:49:39.646Z,11.00
2023-05-25T05:54:43.737Z,10.50
2023-05-25T05:59:51.003Z,11.20
2023-05-25T06:04:55.376Z,10.90
2023-05-25T06:10:03.932Z,10.80
2023-05-25T06:15:16.336Z,9.80
2023-05-25T06:20:22.777Z,9.90
2023-05-25T06:25:27.155Z,11.00
2023-05-25T06:30:32.145Z,10.40
2023-05-25T06:35:36.065Z,10.50
2023-05-25T06:40:40.078Z,10.10
2023-05-25T06:45:44.351Z,9.70
2023-05-25T06:50:49.141Z,8.90
2023-05-25T06:55:53.223Z,8.20
2023-05-25T07:00:57.085Z,9.60
2023-05-25T07:06:00.926Z,8.80
2023-05-25T07:11:05.150Z,8.10
2023-05-25T07:16:08.973Z,8.10
2023-05-25T07:21:12.735Z,8.00
2023-05-25T07:26:17.034Z,7.30
2023-05-25T07:31:20.913Z,8.10
2023-05-25T07:36:25.259Z,8.00
2023-05-25T07:41:28.926Z,9.00
2023-05-25T07:46:32.747Z,8.50
2023-05-25T07:51:37.036Z,9.10
2023-05-25T07:56:40.908Z,8.70
2023-05-25T08:01:44.704Z,8.10
2023-05-25T08:06:48.514Z,8.40
2023-05-25T08:11:52.382Z,7.60
2023-05-25T08:16:59.833Z,7.00
2023-05-25T08:22:03.798Z,7.80
2023-05-25T08:27:07.479Z,7.90
2023-05-25T08:32:11.454Z,8.20
2023-05-25T08:37:15.259Z,7.80
2023-05-25T08:42:19.129Z,7.10
2023-05-25T08:47:23.848Z,7.80
2023-05-25T08:52:30.050Z,7.20
2023-05-25T08:57:42.695Z,7.00
2023-05-25T09:03:07.584Z,5.90
2023-05-25T09:08:11.882Z,6.40
2023-05-25T09:18:22.990Z,6.50
2023-05-25T09:23:26.968Z,5.60
2023-05-25T09:28:30.705Z,5.50
2023-05-25T09:33:36.879Z,6.20
2023-05-25T09:38:41.706Z,5.50
2023-05-25T09:44:02.196Z,5.70
2023-05-25T09:49:12.590Z,5.30
2023-05-25T09:54:16.898Z,5.30
2023-05-25T09:59:22.573Z,4.40
2023-05-25T10:04:26.557Z,4.80
2023-05-25T10:09:31.009Z,5.00
2023-05-25T10:14:37.449Z,5.10
2023-05-25T10:19:49.616Z,5.10
2023-05-25T10:25:12.087Z,4.60
2023-05-25T10:30:16.812Z,5.40
2023-05-25T10:35:21.889Z,5.20
2023-05-25T10:40:25.710Z,5.30
2023-05-25T10:45:31.122Z,5.70
2023-05-25T10:50:38.051Z,5.40
2023-05-25T10:55:49.702Z,4.90
2023-05-25T11:01:08.683Z,5.90
2023-05-25T11:06:17.162Z,4.90
2023-05-25T11:11:21.388Z,5.40
2023-05-25T11:16:29.813Z,5.30
2023-05-25T11:21:37.130Z,4.90
2023-05-25T11:26:56.960Z,4.50
2023-05-25T11:32:01.538Z,4.10
2023-05-25T11:37:05.479Z,4.80
2023-05-25T11:42:11.764Z,4.50
2023-05-25T11:47:19.303Z,4.70
2023-05-25T11:52:25.412Z,4.30
2023-05-25T11:57:29.378Z,4.80
2023-05-25T12:02:44.002Z,3.80
2023-05-25T12:07:48.154Z,4.50
2023-05-25T12:12:52.588Z,4.00
2023-05-25T12:17:57.453Z,4.40
2023-05-25T12:23:02.183Z,3.80
2023-05-25T12:28:12.715Z,4.60
2023-05-25T12:33:16.668Z,4.40
2023-05-25T12:38:24.328Z,4.80
2023-05-25T12:43:45.787Z,4.60
2023-05-25T12:48:49.587Z,4.10
2023-05-25T12:53:54.647Z,4.50
2023-05-25T12:59:16.882Z,4.40
2023-05-25T13:04:20.776Z,4.20
2023-05-25T13:09:29.123Z,4.50
2023-05-25T13:14:32.969Z,4.40
2023-05-25T13:19:37.302Z,3.90
2023-05-25T13:24:41.440Z,4.10
2023-05-25T13:29:45.145Z,4.90
2023-05-25T13:34:54.413Z,3.80
2023-05-25T13:40:01.151Z,4.30
2023-05-25T13:45:08.710Z,4.60
2023-05-25T13:50:12.626Z,4.20
2023-05-25T13:55:16.574Z,4.00
2023-05-25T14:00:20.631Z,4.70
2023-05-25T14:05:24.793Z,3.90
2023-05-25T14:10:28.917Z,4.50
2023-05-25T14:15:33.080Z,3.60
2023-05-25T14:20:38.421Z,4.00
2023-05-25T14:25:45.577Z,3.80
2023-05-25T14:30:50.059Z,3.90
2023-05-25T14:35:53.837Z,4.20
2023-05-25T14:40:57.637Z,4.10
2023-05-25T14:46:01.510Z,3.60
2023-05-25T14:51:06.216Z,4.00
2023-05-25T14:56:11.291Z,3.50
2023-05-25T15:01:15.281Z,3.70
2023-05-25T15:06:19.024Z,4.00
2023-05-25T15:11:22.814Z,3.70
2023-05-25T15:16:26.653Z,3.70
2023-05-25T15:21:30.860Z,3.60
2023-05-25T15:26:34.914Z,3.70
2023-05-25T15:31:38.781Z,3.80
2023-05-25T15:36:45.630Z,4.10
2023-05-25T15:41:56.933Z,3.90
2023-05-25T15:47:03.943Z,3.20
2023-05-25T15:52:08.092Z,3.40
2023-05-25T15:57:15.448Z,4.10
2023-05-25T16:02:20.125Z,3.30
2023-05-25T16:07:24.064Z,3.20
2023-05-25T16:12:28.613Z,3.40
2023-05-25T16:17:32.569Z,3.80
2023-05-25T16:22:36.342Z,3.30
2023-05-25T16:27:40.214Z,3.30
2023-05-25T16:32:43.999Z,4.10
2023-05-25T16:37:47.789Z,3.10
2023-05-25T16:42:51.727Z,3.40
2023-05-25T16:47:55.462Z,3.50
2023-05-25T16:52:59.361Z,3.90
2023-05-25T16:58:03.433Z,3.50
2023-05-25T17:03:07.498Z,3.90
2023-05-25T17:08:12.577Z,3.50
2023-05-25T17:13:18.882Z,3.90
2023-05-25T17:18:22.774Z,3.80
2023-05-25T17:23:27.384Z,4.20
2023-05-25T17:28:33.221Z,4.40
2023-05-25T17:33:36.948Z,4.00
2023-05-25T17:38:41.653Z,3.70
2023-05-25T17:43:46.728Z,4.00
2023-05-25T17:48:50.806Z,4.30
2023-05-25T17:53:54.621Z,4.10
2023-05-25T17:58:58.392Z,3.60
2023-05-25T18:04:02.592Z,3.80
2023-05-25T18:09:06.413Z,4.30
2023-05-25T18:14:10.706Z,3.80
2023-05-25T18:19:21.552Z,3.80
2023-05-25T18:24:28.950Z,4.00
2023-05-25T18:29:33.075Z,3.80
2023-05-25T18:34:37.224Z,4.10
2023-05-25T18:39:42.505Z,4.00
2023-05-25T18:44:46.802Z,4.10
2023-05-25T18:49:51.977Z,4.20
2023-05-25T18:54:56.445Z,4.50
2023-05-25T19:00:07.882Z,6.90
2023-05-25T19:05:11.991Z,11.50
2023-05-25T19:10:16.288Z,7.50
2023-05-25T19:15:20.659Z,6.10
2023-05-25T19:20:28.638Z,6.10
2023-05-25T19:25:32.747Z,6.20
2023-05-25T19:30:36.940Z,6.20
2023-05-25T19:35:42.059Z,6.90
2023-05-25T19:40:46.548Z,6.70
2023-05-25T19:45:50.915Z,7.10
2023-05-25T19:50:54.938Z,7.40
2023-05-25T19:56:00.181Z,8.10
2023-05-25T20:01:04.316Z,12.00
2023-05-25T20:06:08.782Z,7.50
2023-05-25T20:11:13.481Z,8.70
2023-05-25T20:16:17.523Z,8.10
2023-05-25T20:21:22.466Z,7.50
2023-05-25T20:26:26.310Z,6.70
2023-05-25T20:31:30.139Z,6.70
2023-05-25T20:36:33.930Z,6.60
2023-05-25T20:41:38.343Z,7.20
2023-05-25T20:46:42.568Z,7.10
2023-05-25T20:51:50.558Z,6.80
2023-05-25T20:56:55.403Z,6.30
2023-05-25T21:01:59.612Z,6.40
2023-05-25T21:07:03.891Z,7.10
2023-05-25T21:12:07.955Z,6.60
2023-05-25T21:17:12.030Z,8.10
2023-05-25T21:22:16.604Z,7.90
2023-05-25T21:27:20.381Z,8.10
2023-05-25T21:32:24.371Z,8.40
2023-05-25T21:37:28.639Z,10.20
2023-05-25T21:42:32.461Z,12.00
2023-05-25T21:47:36.215Z,11.80
2023-05-25T21:52:40.384Z,10.80
2023-05-25T21:57:44.347Z,11.00
2023-05-25T22:02:49.280Z,16.70
2023-05-25T22:07:54.994Z,13.60
2023-05-25T22:12:59.412Z,12.70
2023-05-25T22:18:03.131Z,12.50
2023-05-25T22:23:07.628Z,12.70
2023-05-25T22:28:11.512Z,11.60
2023-05-25T22:33:15.242Z,15.10
2023-05-25T22:38:18.921Z,13.60
2023-05-25T22:43:22.434Z,15.80
2023-05-25T22:48:26.584Z,14.70
2023-05-25T22:53:30.271Z,15.60
2023-05-25T22:58:33.936Z,17.60
2023-05-25T23:03:37.590Z,14.50
2023-05-25T23:08:41.282Z,17.60
2023-05-25T23:13:45.562Z,16.00
2023-05-25T23:18:49.080Z,17.30
2023-05-25T23:23:52.556Z,17.50
2023-05-25T23:28:56.253Z,17.10
2023-05-25T23:34:00.592Z,16.70
2023-05-25T23:45:58.984Z,19.50
2023-05-25T23:51:02.823Z,17.60
2023-05-25T23:56:06.768Z,19.90
